createdAt,value
2019-05-14T00:01:03.271Z,5.19
2019-05-14T00:03:31.157Z,5.17
2019-05-14T00:05:58.016Z,5.19
2019-05-14T00:08:24.858Z,5.22
2019-05-14T00:10:52.184Z,5.27
2019-05-14T00:13:21.270Z,5.34
2019-05-14T00:15:47.640Z,5.33
2019-05-14T00:18:14.370Z,5.30
2019-05-14T00:20:41.939Z,5.26
2019-05-14T00:23:08.924Z,5.34
2019-05-14T00:25:35.683Z,5.38
2019-05-14T00:28:02.485Z,5.40
2019-05-14T00:30:31.055Z,5.42
2019-05-14T00:32:57.831Z,5.44
2019-05-14T00:35:24.634Z,5.47
2019-05-14T00:37:52.107Z,5.51
2019-05-14T00:40:18.979Z,5.51
2019-05-14T00:42:45.793Z,5.49
2019-05-14T00:45:12.719Z,5.37
2019-05-14T00:47:41.581Z,5.36
2019-05-14T00:50:08.638Z,5.37
2019-05-14T00:52:35.385Z,5.39
2019-05-14T00:55:05.520Z,5.38
2019-05-14T00:57:32.353Z,5.43
2019-05-14T01:00:01.032Z,5.40
2019-05-14T01:02:27.610Z,5.41
2019-05-14T01:04:54.417Z,5.36
2019-05-14T01:07:21.305Z,5.37
2019-05-14T01:09:48.395Z,5.33
2019-05-14T01:12:15.305Z,5.32
2019-05-14T01:14:42.610Z,5.27
2019-05-14T01:17:11.304Z,5.22
2019-05-14T01:19:38.154Z,5.09
2019-05-14T01:22:04.880Z,5.10
2019-05-14T01:24:32.267Z,5.04
2019-05-14T01:27:01.447Z,4.99
2019-05-14T01:29:27.810Z,4.97
2019-05-14T01:31:54.569Z,4.88
2019-05-14T01:34:21.672Z,4.81
2019-05-14T01:36:48.495Z,4.72
2019-05-14T01:39:15.256Z,4.69
2019-05-14T01:41:42.511Z,4.68
2019-05-14T01:44:11.803Z,4.62
2019-05-14T01:46:37.936Z,4.59
2019-05-14T01:49:04.716Z,4.51
2019-05-14T01:51:31.780Z,4.44
2019-05-14T01:53:58.683Z,4.38
2019-05-14T01:56:25.487Z,4.33
2019-05-14T01:58:52.409Z,4.28
2019-05-14T02:01:21.689Z,4.24
2019-05-14T02:03:47.813Z,4.20
2019-05-14T02:06:14.572Z,4.11
2019-05-14T02:08:41.497Z,4.10
2019-05-14T02:11:08.361Z,4.05
2019-05-14T02:13:35.119Z,4.01
2019-05-14T02:16:02.480Z,3.96
2019-05-14T02:18:31.132Z,3.93
2019-05-14T02:20:58.088Z,3.90
2019-05-14T02:23:24.847Z,3.85
2019-05-14T02:25:51.922Z,3.82
2019-05-14T02:28:18.785Z,3.79
2019-05-14T02:30:56.088Z,3.74
2019-05-14T02:33:14.155Z,3.73
2019-05-14T02:35:40.945Z,3.68
2019-05-14T02:38:10.317Z,3.61
2019-05-14T02:40:36.261Z,3.57
2019-05-14T02:43:03.219Z,3.55
2019-05-14T02:45:30.527Z,3.53
2019-05-14T02:48:00.382Z,3.47
2019-05-14T02:50:29.273Z,3.42
2019-05-14T02:52:54.470Z,3.41
2019-05-14T02:55:21.280Z,3.40
2019-05-14T02:57:50.083Z,3.34
2019-05-14T03:00:19.334Z,3.35
2019-05-14T03:02:45.394Z,3.29
2019-05-14T03:05:12.299Z,3.29
2019-05-14T03:07:39.710Z,3.22
2019-05-14T03:10:09.894Z,3.24
2019-05-14T03:12:39.303Z,3.20
2019-05-14T03:15:09.618Z,3.15
2019-05-14T03:17:40.531Z,3.15
2019-05-14T03:20:09.103Z,3.11
2019-05-14T03:22:46.994Z,3.11
2019-05-14T03:25:05.706Z,3.08
2019-05-14T03:27:32.424Z,3.09
2019-05-14T03:29:59.142Z,3.06
2019-05-14T03:32:26.112Z,3.03
2019-05-14T03:34:54.290Z,2.99
2019-05-14T03:37:23.571Z,3.02
2019-05-14T03:39:49.860Z,3.00
2019-05-14T03:42:19.428Z,2.96
2019-05-14T03:44:45.172Z,2.93
2019-05-14T03:47:11.960Z,2.91
2019-05-14T03:49:39.797Z,2.87
2019-05-14T03:52:09.581Z,2.87
2019-05-14T03:54:35.740Z,2.83
2019-05-14T03:57:02.445Z,2.79
2019-05-14T03:59:29.475Z,2.77
2019-05-14T04:01:59.392Z,2.75
2019-05-14T04:04:24.998Z,2.73
2019-05-14T04:06:53.879Z,2.75
2019-05-14T04:09:21.958Z,2.72
2019-05-14T04:11:52.248Z,2.70
2019-05-14T04:14:23.429Z,2.69
2019-05-14T04:17:05.265Z,2.65
2019-05-14T04:19:22.975Z,2.66
2019-05-14T04:21:49.685Z,2.62
2019-05-14T04:24:20.458Z,2.67
2019-05-14T04:26:58.437Z,2.67
2019-05-14T04:29:19.829Z,2.64
2019-05-14T04:31:50.365Z,2.59
2019-05-14T04:34:19.318Z,2.56
2019-05-14T04:36:44.758Z,2.57
2019-05-14T04:39:11.663Z,2.56
2019-05-14T04:41:39.384Z,2.56
2019-05-14T04:44:09.546Z,2.55
2019-05-14T04:46:35.277Z,2.52
2019-05-14T04:49:02.023Z,2.48
2019-05-14T04:51:30.329Z,2.44
2019-05-14T04:53:59.896Z,2.45
2019-05-14T04:56:25.911Z,2.46
2019-05-14T04:58:52.651Z,2.49
2019-05-14T05:01:20.932Z,2.52
2019-05-14T05:03:50.368Z,2.51
2019-05-14T05:06:19.201Z,2.52
2019-05-14T05:08:45.098Z,2.54
2019-05-14T05:11:11.850Z,2.50
2019-05-14T05:13:39.694Z,2.49
2019-05-14T05:16:09.636Z,2.49
2019-05-14T05:18:35.406Z,2.49
2019-05-14T05:21:02.146Z,2.49
2019-05-14T05:23:28.934Z,2.48
2019-05-14T05:25:55.651Z,2.46
2019-05-14T05:28:22.432Z,2.48
2019-05-14T05:30:49.275Z,2.49
2019-05-14T05:33:16.066Z,2.49
2019-05-14T05:35:42.827Z,2.54
2019-05-14T05:38:09.661Z,2.59
2019-05-14T05:40:38.982Z,2.65
2019-05-14T05:43:04.988Z,2.72
2019-05-14T05:45:31.862Z,2.83
2019-05-14T05:48:01.629Z,2.97
2019-05-14T05:50:28.752Z,3.07
2019-05-14T05:52:55.770Z,3.18
2019-05-14T05:55:24.233Z,3.28
2019-05-14T05:57:50.975Z,3.41
2019-05-14T06:00:34.340Z,3.54
2019-05-14T06:03:01.102Z,3.67
2019-05-14T06:05:29.248Z,3.74
2019-05-14T06:07:58.872Z,3.86
2019-05-14T06:10:24.745Z,4.01
2019-05-14T06:12:51.461Z,4.12
2019-05-14T06:15:19.223Z,4.30
2019-05-14T06:17:46.128Z,4.45
2019-05-14T06:20:13.195Z,4.59
2019-05-14T06:22:40.021Z,4.69
2019-05-14T06:25:10.955Z,4.83
2019-05-14T06:27:37.901Z,4.92
2019-05-14T06:30:09.071Z,5.08
2019-05-14T06:32:38.536Z,5.19
2019-05-14T06:35:08.596Z,5.30
2019-05-14T06:37:34.880Z,5.36
2019-05-14T06:40:04.040Z,5.47
2019-05-14T06:42:30.773Z,5.61
2019-05-14T06:44:58.600Z,5.68
2019-05-14T06:47:25.514Z,5.80
2019-05-14T06:49:52.275Z,5.90
2019-05-14T06:52:19.085Z,6.04
2019-05-14T06:54:45.861Z,6.14
2019-05-14T06:57:12.602Z,6.21
2019-05-14T06:59:39.469Z,6.37
2019-05-14T07:02:08.497Z,6.41
2019-05-14T07:04:35.097Z,6.56
2019-05-14T07:07:01.923Z,6.59
2019-05-14T07:09:29.071Z,6.68
2019-05-14T07:11:58.321Z,6.77
2019-05-14T07:14:24.625Z,6.79
2019-05-14T07:16:51.369Z,6.88
2019-05-14T07:19:19.135Z,6.94
2019-05-14T07:21:48.952Z,6.96
2019-05-14T07:24:14.780Z,6.93
2019-05-14T07:26:41.516Z,7.10
2019-05-14T07:29:11.455Z,7.14
2019-05-14T07:31:38.496Z,7.19
2019-05-14T07:34:05.467Z,7.34
2019-05-14T07:36:32.274Z,7.45
2019-05-14T07:39:00.177Z,7.41
2019-05-14T07:41:28.443Z,7.37
2019-05-14T07:43:55.631Z,7.46
2019-05-14T07:46:22.360Z,7.55
2019-05-14T07:49:03.462Z,7.69
2019-05-14T07:51:19.029Z,7.67
2019-05-14T07:53:48.525Z,7.49
2019-05-14T07:56:14.518Z,7.61
2019-05-14T07:58:41.283Z,7.76
2019-05-14T08:01:09.454Z,7.87
2019-05-14T08:03:38.285Z,7.98
2019-05-14T08:06:05.124Z,8.06
2019-05-14T08:08:31.861Z,8.05
2019-05-14T08:10:59.175Z,8.15
2019-05-14T08:13:28.254Z,8.22
2019-05-14T08:15:54.790Z,8.23
2019-05-14T08:18:21.517Z,8.21
2019-05-14T08:20:48.747Z,8.20
2019-05-14T08:23:18.244Z,8.18
2019-05-14T08:25:44.150Z,8.15
2019-05-14T08:28:10.973Z,8.25
2019-05-14T08:30:38.972Z,8.31
2019-05-14T08:33:06.015Z,8.34
2019-05-14T08:35:34.063Z,8.41
2019-05-14T08:38:07.654Z,8.43
2019-05-14T08:40:29.939Z,8.58
2019-05-14T08:42:58.381Z,8.62
2019-05-14T08:45:25.142Z,8.57
2019-05-14T08:47:51.881Z,8.41
2019-05-14T08:50:19.045Z,8.41
2019-05-14T08:52:48.156Z,8.40
2019-05-14T08:55:14.532Z,8.52
2019-05-14T08:57:41.409Z,8.48
2019-05-14T09:00:13.941Z,8.42
2019-05-14T09:02:39.106Z,8.49
2019-05-14T09:05:09.886Z,8.53
2019-05-14T09:07:34.706Z,8.54
2019-05-14T09:10:01.459Z,8.49
2019-05-14T09:12:28.331Z,8.70
2019-05-14T09:14:55.066Z,8.57
2019-05-14T09:17:21.838Z,8.72
2019-05-14T09:20:02.142Z,8.89
2019-05-14T09:22:18.500Z,8.99
2019-05-14T09:24:45.670Z,8.91
2019-05-14T09:27:12.496Z,8.94
2019-05-14T09:29:39.589Z,8.98
2019-05-14T09:32:06.395Z,8.96
2019-05-14T09:34:34.106Z,9.02
2019-05-14T09:37:00.827Z,9.11
2019-05-14T09:39:29.150Z,9.19
2019-05-14T09:41:57.997Z,9.03
2019-05-14T09:44:24.707Z,9.13
2019-05-14T09:46:51.445Z,9.14
2019-05-14T09:49:18.776Z,9.07
2019-05-14T09:51:45.684Z,9.13
2019-05-14T09:54:12.447Z,9.28
2019-05-14T09:56:39.662Z,9.17
2019-05-14T09:59:06.451Z,9.17
2019-05-14T10:01:33.188Z,9.26
2019-05-14T10:04:00.025Z,9.37
2019-05-14T10:06:28.466Z,9.43
2019-05-14T10:08:55.318Z,9.47
2019-05-14T10:11:22.202Z,9.52
2019-05-14T10:13:48.932Z,9.51
2019-05-14T10:16:18.570Z,9.59
2019-05-14T10:18:44.257Z,9.58
2019-05-14T10:21:11.024Z,9.74
2019-05-14T10:23:38.973Z,9.65
2019-05-14T10:26:05.906Z,9.80
2019-05-14T10:28:32.625Z,9.82
2019-05-14T10:31:00.609Z,9.87
2019-05-14T10:33:28.737Z,9.66
2019-05-14T10:35:55.702Z,9.80
2019-05-14T10:38:22.459Z,9.85
2019-05-14T10:40:49.333Z,9.91
2019-05-14T10:43:16.094Z,10.03
2019-05-14T10:45:42.822Z,9.94
2019-05-14T10:48:09.868Z,10.01
2019-05-14T10:50:55.165Z,10.12
2019-05-14T10:53:08.962Z,10.17
2019-05-14T10:55:35.827Z,10.42
2019-05-14T10:58:02.614Z,10.53
2019-05-14T11:00:29.345Z,10.67
2019-05-14T11:02:56.199Z,10.75
2019-05-14T11:05:22.965Z,10.87
2019-05-14T11:07:49.725Z,10.94
2019-05-14T11:10:19.417Z,11.03
2019-05-14T11:12:45.225Z,10.95
2019-05-14T11:15:13.998Z,10.94
2019-05-14T11:17:40.956Z,10.58
2019-05-14T11:20:08.161Z,10.20
2019-05-14T11:22:35.094Z,10.14
2019-05-14T11:25:04.189Z,10.12
2019-05-14T11:27:30.939Z,10.46
2019-05-14T11:29:58.651Z,10.85
2019-05-14T11:32:25.570Z,11.25
2019-05-14T11:34:52.493Z,11.48
2019-05-14T11:37:19.250Z,11.72
2019-05-14T11:39:46.050Z,11.93
2019-05-14T11:42:12.835Z,11.91
2019-05-14T11:44:39.581Z,11.45
2019-05-14T11:47:08.753Z,11.35
2019-05-14T11:49:35.003Z,11.17
2019-05-14T11:52:07.651Z,11.52
2019-05-14T11:54:30.470Z,11.73
2019-05-14T11:56:58.932Z,11.85
2019-05-14T11:59:28.043Z,12.02
2019-05-14T12:01:55.112Z,12.04
2019-05-14T12:04:22.075Z,12.40
2019-05-14T12:06:48.805Z,12.65
2019-05-14T12:09:15.586Z,12.96
2019-05-14T12:11:42.336Z,13.07
2019-05-14T12:14:09.141Z,13.26
2019-05-14T12:16:35.884Z,12.87
2019-05-14T12:19:02.752Z,12.52
2019-05-14T12:21:29.506Z,12.35
2019-05-14T12:24:03.067Z,12.15
2019-05-14T12:26:24.839Z,12.19
2019-05-14T12:28:51.577Z,12.24
2019-05-14T12:31:18.398Z,12.20
2019-05-14T12:33:45.131Z,12.06
2019-05-14T12:36:11.958Z,11.85
2019-05-14T12:38:38.753Z,11.61
2019-05-14T12:41:05.491Z,11.59
2019-05-14T12:43:32.267Z,11.59
2019-05-14T12:45:59.423Z,11.30
2019-05-14T12:48:29.527Z,11.03
2019-05-14T12:50:55.106Z,10.74
2019-05-14T12:53:21.903Z,11.07
2019-05-14T12:55:48.829Z,11.26
2019-05-14T12:58:15.885Z,11.45
2019-05-14T13:00:42.706Z,11.60
2019-05-14T13:03:09.444Z,11.87
2019-05-14T13:05:36.191Z,11.96
2019-05-14T13:08:03.085Z,12.06
2019-05-14T13:10:29.925Z,12.20
2019-05-14T13:12:58.662Z,12.30
2019-05-14T13:15:25.342Z,12.51
2019-05-14T13:17:52.109Z,12.63
2019-05-14T13:20:18.860Z,12.82
2019-05-14T13:22:46.643Z,12.46
2019-05-14T13:25:14.321Z,12.44
2019-05-14T13:27:41.045Z,12.34
2019-05-14T13:30:09.165Z,12.35
2019-05-14T13:32:39.063Z,12.40
2019-05-14T13:35:09.653Z,11.87
2019-05-14T13:37:34.843Z,11.48
2019-05-14T13:40:03.623Z,11.65
2019-05-14T13:42:30.371Z,12.14
2019-05-14T13:44:58.481Z,12.39
2019-05-14T13:47:25.325Z,12.18
2019-05-14T13:49:52.077Z,12.14
2019-05-14T13:52:18.939Z,11.73
2019-05-14T13:54:45.703Z,11.80
2019-05-14T13:57:12.440Z,11.74
2019-05-14T13:59:43.887Z,11.81
2019-05-14T14:02:09.827Z,12.06
2019-05-14T14:04:38.171Z,12.13
2019-05-14T14:07:04.924Z,12.25
2019-05-14T14:09:31.829Z,11.91
2019-05-14T14:11:58.828Z,12.14
2019-05-14T14:14:25.658Z,12.05
2019-05-14T14:16:52.399Z,11.85
2019-05-14T14:19:19.151Z,12.10
2019-05-14T14:21:49.206Z,11.55
2019-05-14T14:24:14.476Z,11.28
2019-05-14T14:26:41.209Z,11.30
2019-05-14T14:29:09.197Z,11.25
2019-05-14T14:31:36.473Z,11.02
2019-05-14T14:34:03.421Z,10.48
2019-05-14T14:36:30.317Z,10.52
2019-05-14T14:38:58.845Z,10.43
2019-05-14T14:41:28.413Z,10.04
2019-05-14T14:43:55.488Z,9.83
2019-05-14T14:46:22.317Z,9.86
2019-05-14T14:48:49.670Z,9.94
2019-05-14T14:51:19.350Z,9.95
2019-05-14T14:53:58.436Z,9.82
2019-05-14T14:56:14.581Z,10.01
2019-05-14T14:58:41.425Z,10.04
2019-05-14T15:01:08.766Z,10.39
2019-05-14T15:03:36.185Z,10.85
2019-05-14T15:06:03.036Z,11.03
2019-05-14T15:08:29.771Z,11.24
2019-05-14T15:10:59.109Z,11.22
2019-05-14T15:13:25.156Z,11.13
2019-05-14T15:15:51.887Z,11.02
2019-05-14T15:18:18.885Z,10.85
2019-05-14T15:20:48.919Z,10.96
2019-05-14T15:23:15.026Z,10.97
2019-05-14T15:25:41.969Z,10.94
2019-05-14T15:28:10.709Z,10.77
2019-05-14T15:30:39.573Z,10.34
2019-05-14T15:33:08.976Z,10.64
2019-05-14T15:35:34.706Z,11.00
2019-05-14T15:38:01.465Z,11.37
2019-05-14T15:40:28.901Z,11.10
2019-05-14T15:42:58.967Z,10.92
2019-05-14T15:45:24.581Z,10.57
2019-05-14T15:47:51.900Z,10.66
2019-05-14T15:50:20.104Z,10.68
2019-05-14T15:52:48.687Z,10.76
2019-05-14T15:55:23.175Z,10.97
2019-05-14T15:57:49.944Z,10.92
2019-05-14T16:00:19.560Z,10.85
2019-05-14T16:02:45.375Z,10.52
2019-05-14T16:05:12.289Z,10.34
2019-05-14T16:07:39.336Z,10.22
2019-05-14T16:10:08.588Z,10.21
2019-05-14T16:12:36.048Z,10.18
2019-05-14T16:15:08.371Z,10.05
2019-05-14T16:17:34.439Z,10.03
2019-05-14T16:20:20.969Z,10.19
2019-05-14T16:22:47.730Z,10.24
2019-05-14T16:25:15.694Z,10.16
2019-05-14T16:27:44.008Z,10.32
2019-05-14T16:30:11.120Z,10.34
2019-05-14T16:32:39.423Z,10.20
2019-05-14T16:35:08.888Z,10.13
2019-05-14T16:37:35.830Z,9.76
2019-05-14T16:40:05.431Z,9.85
2019-05-14T16:42:32.215Z,9.76
2019-05-14T16:44:58.936Z,9.56
2019-05-14T16:47:28.024Z,9.27
2019-05-14T16:49:54.257Z,9.26
2019-05-14T16:52:22.274Z,9.13
2019-05-14T16:54:49.058Z,9.13
2019-05-14T16:57:18.415Z,9.10
2019-05-14T16:59:44.314Z,8.96
2019-05-14T17:02:11.042Z,8.92
2019-05-14T17:04:38.777Z,8.75
2019-05-14T17:07:05.647Z,8.76
2019-05-14T17:09:32.367Z,8.53
2019-05-14T17:11:59.176Z,8.54
2019-05-14T17:14:25.915Z,8.34
2019-05-14T17:16:53.277Z,8.30
2019-05-14T17:19:20.169Z,8.13
2019-05-14T17:21:48.974Z,7.94
2019-05-14T17:24:15.569Z,7.65
2019-05-14T17:26:42.373Z,7.47
2019-05-14T17:29:09.083Z,7.42
2019-05-14T17:31:39.117Z,7.38
2019-05-14T17:34:08.602Z,7.33
2019-05-14T17:36:34.902Z,7.36
2019-05-14T17:39:01.657Z,7.45
2019-05-14T17:41:29.043Z,7.41
2019-05-14T17:43:55.797Z,7.40
2019-05-14T17:46:22.515Z,7.35
2019-05-14T17:48:49.320Z,7.33
2019-05-14T17:51:18.114Z,7.40
2019-05-14T17:53:44.608Z,7.50
2019-05-14T17:56:11.531Z,7.43
2019-05-14T17:58:38.567Z,7.32
2019-05-14T18:01:05.520Z,7.30
2019-05-14T18:03:32.377Z,7.30
2019-05-14T18:05:59.133Z,7.35
2019-05-14T18:08:25.930Z,7.34
2019-05-14T18:10:53.247Z,7.36
2019-05-14T18:13:20.012Z,7.35
2019-05-14T18:15:48.849Z,7.33
2019-05-14T18:18:15.305Z,7.29
2019-05-14T18:20:42.034Z,7.26
2019-05-14T18:23:11.752Z,7.19
2019-05-14T18:25:38.910Z,7.16
2019-05-14T18:28:09.066Z,7.06
2019-05-14T18:30:34.410Z,6.96
2019-05-14T18:33:01.177Z,6.79
2019-05-14T18:35:29.458Z,6.57
2019-05-14T18:37:56.501Z,6.62
2019-05-14T18:40:23.389Z,6.66
2019-05-14T18:42:50.139Z,6.70
2019-05-14T18:45:19.007Z,6.70
2019-05-14T18:47:48.327Z,6.67
2019-05-14T18:50:14.395Z,6.61
2019-05-14T18:52:41.156Z,6.57
2019-05-14T18:55:08.601Z,6.44
2019-05-14T18:57:35.407Z,6.37
2019-05-14T19:00:05.711Z,6.35
2019-05-14T19:02:33.005Z,6.36
2019-05-14T19:04:59.718Z,6.33
2019-05-14T19:07:28.745Z,6.34
2019-05-14T19:09:55.156Z,6.29
2019-05-14T19:12:21.977Z,6.30
2019-05-14T19:14:49.228Z,6.21
2019-05-14T19:17:18.543Z,6.23
2019-05-14T19:19:44.843Z,6.23
2019-05-14T19:22:11.562Z,6.27
2019-05-14T19:24:38.439Z,6.25
2019-05-14T19:27:05.636Z,6.26
2019-05-14T19:29:32.345Z,6.26
2019-05-14T19:31:59.200Z,6.26
2019-05-14T19:34:25.933Z,6.24
2019-05-14T19:36:52.652Z,6.19
2019-05-14T19:39:19.471Z,6.18
2019-05-14T19:41:48.271Z,6.14
2019-05-14T19:44:14.819Z,6.08
2019-05-14T19:46:41.629Z,6.02
2019-05-14T19:49:08.404Z,5.96
2019-05-14T19:51:35.120Z,5.99
2019-05-14T19:54:01.958Z,5.97
2019-05-14T19:56:29.311Z,5.86
2019-05-14T19:58:56.243Z,5.80
2019-05-14T20:01:23.028Z,5.81
2019-05-14T20:03:49.748Z,5.84
2019-05-14T20:06:18.698Z,5.77
2019-05-14T20:08:45.145Z,5.72
2019-05-14T20:11:11.879Z,5.59
2019-05-14T20:13:39.293Z,5.61
2019-05-14T20:16:08.495Z,5.58
2019-05-14T20:18:34.840Z,5.41
2019-05-14T20:21:01.574Z,5.43
2019-05-14T20:23:29.128Z,5.37
2019-05-14T20:25:56.026Z,5.37
2019-05-14T20:28:23.237Z,5.31
2019-05-14T20:30:50.114Z,5.27
2019-05-14T20:33:18.913Z,5.29
2019-05-14T20:35:45.416Z,5.15
2019-05-14T20:38:12.230Z,4.99
2019-05-14T20:40:39.011Z,5.10
2019-05-14T20:43:05.731Z,5.13
2019-05-14T20:45:32.534Z,5.14
2019-05-14T20:47:59.266Z,5.12
2019-05-14T20:50:26.011Z,5.04
2019-05-14T20:52:52.779Z,5.09
2019-05-14T20:55:19.533Z,5.12
2019-05-14T20:57:48.738Z,5.01
2019-05-14T21:00:18.225Z,5.14
2019-05-14T21:02:45.004Z,5.06
2019-05-14T21:05:13.736Z,5.02
2019-05-14T21:07:40.481Z,4.92
2019-05-14T21:10:07.830Z,4.97
2019-05-14T21:12:34.911Z,5.00
2019-05-14T21:15:02.138Z,4.90
2019-05-14T21:17:28.853Z,4.99
2019-05-14T21:19:55.597Z,5.06
2019-05-14T21:22:22.397Z,5.12
2019-05-14T21:24:53.002Z,5.10
2019-05-14T21:27:18.706Z,5.04
2019-05-14T21:29:45.687Z,5.07
2019-05-14T21:32:12.430Z,5.08
2019-05-14T21:34:39.196Z,5.14
2019-05-14T21:37:05.983Z,5.13
2019-05-14T21:39:32.765Z,5.14
2019-05-14T21:41:59.530Z,5.16
2019-05-14T21:44:28.320Z,5.06
2019-05-14T21:46:54.837Z,4.99
2019-05-14T21:49:21.594Z,4.95
2019-05-14T21:51:51.314Z,4.97
2019-05-14T21:54:18.954Z,4.91
2019-05-14T21:56:45.482Z,4.97
2019-05-14T21:59:12.303Z,4.91
2019-05-14T22:01:39.561Z,4.88
2019-05-14T22:04:08.727Z,4.95
2019-05-14T22:06:35.148Z,4.88
2019-05-14T22:09:01.901Z,4.82
2019-05-14T22:11:28.731Z,4.86
2019-05-14T22:13:55.514Z,4.87
2019-05-14T22:16:22.254Z,4.86
2019-05-14T22:18:49.005Z,4.91
2019-05-14T22:21:17.983Z,4.94
2019-05-14T22:23:44.390Z,4.96
2019-05-14T22:26:11.140Z,4.97
2019-05-14T22:28:37.957Z,4.98
2019-05-14T22:31:04.767Z,5.03
2019-05-14T22:33:31.480Z,5.04
2019-05-14T22:35:58.268Z,5.06
2019-05-14T22:38:24.998Z,5.00
2019-05-14T22:40:51.731Z,5.04
2019-05-14T22:43:18.543Z,5.04
2019-05-14T22:45:45.284Z,5.03
2019-05-14T22:48:12.029Z,4.97
2019-05-14T22:50:41.452Z,5.08
2019-05-14T22:53:09.367Z,5.11
2019-05-14T22:55:38.113Z,5.09
2019-05-14T22:58:04.616Z,5.06
2019-05-14T23:00:31.373Z,4.83
2019-05-14T23:02:58.105Z,4.90
2019-05-14T23:05:24.897Z,4.87
2019-05-14T23:07:51.652Z,4.88
2019-05-14T23:10:18.503Z,4.85
2019-05-14T23:12:45.303Z,4.83
2019-05-14T23:15:12.448Z,4.64
2019-05-14T23:17:39.181Z,4.76
2019-05-14T23:20:06.276Z,4.83
2019-05-14T23:22:33.009Z,4.82
2019-05-14T23:24:59.737Z,4.84
2019-05-14T23:27:26.599Z,4.79
2019-05-14T23:29:53.330Z,4.76
2019-05-14T23:32:20.365Z,4.79
2019-05-14T23:34:48.822Z,4.83
2019-05-14T23:37:18.121Z,4.77
2019-05-14T23:39:45.117Z,4.81
2019-05-14T23:42:12.077Z,4.71
2019-05-14T23:44:38.930Z,4.74
2019-05-14T23:47:05.657Z,4.80
2019-05-14T23:49:32.493Z,4.73
2019-05-14T23:51:59.243Z,4.73
2019-05-14T23:54:25.986Z,4.73
2019-05-14T23:56:52.756Z,4.77
2019-05-14T23:59:19.485Z,4.79
